Time;durP1;ratioP1;P1;durP2;ratioP2;P2;SDS_P1;SDS_P2;PMS_P1;PMS_P2;Temp;Humidity;BMP_temperature;BMP_pressure;BME280_temperature;BME280_humidity;BME280_pressure;Samples;Min_cycle;Max_cycle;Signal;HPM_P1;HPM_P2
2021/06/29 00:02:23;;;;;;;2.92;1.77;;;15.50;99.90;;;;;;5050762;28;20100;-74
2021/06/29 00:04:52;;;;;;;3.80;2.20;;;15.50;99.90;;;;;;5050879;28;20025;-74
2021/06/29 00:07:18;;;;;;;5.35;2.50;;;15.40;99.90;;;;;;5050776;28;20181;-74
2021/06/29 00:09:44;;;;;;;4.63;2.10;;;15.30;99.90;;;;;;5050671;28;20496;-74
2021/06/29 00:12:11;;;;;;;5.00;1.92;;;15.40;99.90;;;;;;5052510;28;20094;-74
2021/06/29 00:14:38;;;;;;;3.50;2.28;;;15.40;99.90;;;;;;5050413;28;20412;-74
2021/06/29 00:17:04;;;;;;;3.13;2.20;;;15.40;99.90;;;;;;5052588;28;20021;-74
2021/06/29 00:19:29;;;;;;;2.42;2.10;;;15.20;99.90;;;;;;5052349;28;20134;-74
2021/06/29 00:21:55;;;;;;;5.55;2.53;;;15.20;99.90;;;;;;5051255;28;20040;-74
2021/06/29 00:24:21;;;;;;;3.80;2.50;;;15.20;99.90;;;;;;5035867;28;20029;-74
2021/06/29 00:26:47;;;;;;;3.88;2.42;;;15.10;99.90;;;;;;5045584;28;20045;-74
2021/06/29 00:29:12;;;;;;;4.93;3.35;;;15.10;99.90;;;;;;5048076;28;20021;-74
2021/06/29 00:31:38;;;;;;;3.50;2.65;;;15.00;99.90;;;;;;5032715;28;20083;-74
2021/06/29 00:34:04;;;;;;;3.60;3.30;;;14.90;99.90;;;;;;5031105;28;20072;-74
2021/06/29 00:36:30;;;;;;;4.65;3.00;;;14.80;99.90;;;;;;5031132;28;20030;-74
2021/06/29 00:38:55;;;;;;;5.93;3.78;;;14.90;99.90;;;;;;5031785;28;20025;-74
2021/06/29 00:41:21;;;;;;;7.00;3.35;;;15.00;99.90;;;;;;5032310;28;20051;-74
2021/06/29 00:43:48;;;;;;;3.60;3.03;;;15.10;99.90;;;;;;5032522;28;20374;-74
2021/06/29 00:46:16;;;;;;;5.15;3.55;;;15.00;99.90;;;;;;5032101;28;20030;-74
2021/06/29 00:48:43;;;;;;;2.95;2.75;;;15.10;99.90;;;;;;5032311;28;20025;-74
2021/06/29 00:51:12;;;;;;;3.45;3.15;;;15.30;99.90;;;;;;5032423;28;20040;-74
2021/06/29 00:53:39;;;;;;;3.53;3.13;;;15.30;99.90;;;;;;5040831;28;20473;-74
2021/06/29 00:56:13;;;;;;;5.38;2.55;;;15.30;99.90;;;;;;5052308;28;20040;-74
2021/06/29 00:58:43;;;;;;;4.05;3.15;;;15.10;99.90;;;;;;5052039;28;20025;-74
2021/06/29 01:01:09;;;;;;;3.90;2.97;;;15.10;99.90;;;;;;5052380;28;20025;-74
2021/06/29 01:03:39;;;;;;;4.13;2.95;;;15.00;99.90;;;;;;5052188;28;20036;-74
2021/06/29 01:06:10;;;;;;;4.82;3.30;;;14.80;99.90;;;;;;5052151;28;20028;-74
2021/06/29 01:08:36;;;;;;;6.35;2.92;;;14.60;99.90;;;;;;5051859;28;20388;-74
2021/06/29 01:11:02;;;;;;;2.90;2.70;;;14.50;99.90;;;;;;5051956;28;20037;-74
2021/06/29 01:13:33;;;;;;;3.10;2.70;;;14.40;99.90;;;;;;5051966;28;20021;-74
2021/06/29 01:16:01;;;;;;;4.15;2.80;;;14.50;99.90;;;;;;5052064;28;20120;-74
2021/06/29 01:18:26;;;;;;;4.43;3.38;;;14.60;99.90;;;;;;5051840;28;20021;-74
2021/06/29 01:20:53;;;;;;;3.88;3.35;;;14.60;99.90;;;;;;5050365;28;20451;-74
2021/06/29 01:23:21;;;;;;;3.53;2.67;;;14.60;99.90;;;;;;5031637;28;20026;-74
2021/06/29 01:26:34;;;;;;;4.57;3.28;;;14.60;99.90;;;;;;5036872;28;20051;-74
2021/06/29 01:29:03;;;;;;;3.45;2.80;;;14.60;99.90;;;;;;5051648;28;20075;-74
2021/06/29 01:31:31;;;;;;;3.20;2.40;;;14.50;99.90;;;;;;5051728;28;20037;-74
2021/06/29 01:33:57;;;;;;;4.32;2.78;;;14.20;99.90;;;;;;5050573;28;20041;-74
2021/06/29 01:36:25;;;;;;;6.32;3.53;;;13.90;99.90;;;;;;5051789;28;20059;-74
2021/06/29 01:38:51;;;;;;;5.82;3.40;;;13.60;99.90;;;;;;5051903;28;20031;-74
2021/06/29 01:41:22;;;;;;;7.88;4.70;;;13.50;99.90;;;;;;5051687;28;20040;-74
2021/06/29 01:43:52;;;;;;;6.68;4.43;;;13.40;99.90;;;;;;5051876;28;20496;-74
2021/06/29 01:46:18;;;;;;;6.10;5.50;;;13.30;99.90;;;;;;5051627;28;20036;-74
2021/06/29 01:48:51;;;;;;;6.97;4.90;;;13.20;99.90;;;;;;5050526;28;20044;-74
2021/06/29 01:51:17;;;;;;;7.80;4.50;;;13.20;99.90;;;;;;5048367;28;20489;-74
2021/06/29 01:53:45;;;;;;;7.50;4.32;;;13.30;99.90;;;;;;5035656;28;20093;-74
2021/06/29 01:56:14;;;;;;;6.35;4.50;;;13.20;99.90;;;;;;5035337;28;20029;-74
2021/06/29 01:58:50;;;;;;;12.13;4.97;;;13.20;99.90;;;;;;5049358;28;20531;-74
2021/06/29 02:01:16;;;;;;;12.50;5.88;;;13.20;99.90;;;;;;5055119;28;20029;-73
2021/06/29 02:03:42;;;;;;;9.27;4.88;;;13.20;99.90;;;;;;5055137;28;20424;-73
2021/06/29 02:06:08;;;;;;;9.48;5.05;;;13.20;99.90;;;;;;5054604;28;20386;-73
2021/06/29 02:08:34;;;;;;;11.88;6.20;;;13.20;99.90;;;;;;5054833;28;20079;-73
2021/06/29 02:10:59;;;;;;;10.57;5.88;;;13.30;99.90;;;;;;5037858;28;20067;-73
2021/06/29 02:13:25;;;;;;;8.95;5.15;;;13.40;99.90;;;;;;5034793;28;20067;-73
2021/06/29 02:15:51;;;;;;;10.48;5.20;;;13.40;99.90;;;;;;5034924;28;20082;-73
2021/06/29 02:18:17;;;;;;;10.20;5.28;;;13.50;99.90;;;;;;5034843;28;20422;-74
2021/06/29 02:20:44;;;;;;;17.48;6.07;;;13.50;99.90;;;;;;5033184;28;20156;-74
2021/06/29 02:23:10;;;;;;;7.43;5.40;;;13.50;99.90;;;;;;5054689;28;20402;-74
2021/06/29 02:25:36;;;;;;;11.93;5.50;;;13.50;99.90;;;;;;5054421;28;20052;-74
2021/06/29 02:28:02;;;;;;;8.35;5.85;;;13.60;99.90;;;;;;5054618;28;20025;-74
2021/06/29 02:30:28;;;;;;;12.70;6.50;;;13.60;99.90;;;;;;5054530;28;20083;-74
2021/06/29 02:32:54;;;;;;;10.48;5.40;;;13.60;99.90;;;;;;5054638;28;20021;-74
2021/06/29 02:35:20;;;;;;;10.88;5.68;;;13.50;99.90;;;;;;5053286;28;20028;-74
2021/06/29 02:37:45;;;;;;;11.75;5.82;;;13.70;99.90;;;;;;5054527;28;20108;-74
2021/06/29 02:40:12;;;;;;;9.13;5.40;;;13.80;99.90;;;;;;5053002;28;20112;-74
2021/06/29 02:42:38;;;;;;;6.97;4.80;;;13.80;99.90;;;;;;5054433;28;20066;-74
2021/06/29 02:45:08;;;;;;;9.88;5.68;;;13.70;99.90;;;;;;5054433;28;20021;-74
2021/06/29 02:47:38;;;;;;;11.65;5.03;;;13.80;99.90;;;;;;5054213;28;20104;-74
2021/06/29 02:50:07;;;;;;;8.52;5.05;;;13.80;99.90;;;;;;5054021;28;20550;-74
2021/06/29 02:52:33;;;;;;;11.77;6.18;;;13.80;99.90;;;;;;5054191;28;20547;-74
2021/06/29 02:55:00;;;;;;;8.45;5.57;;;13.90;99.90;;;;;;5053994;28;20021;-74
2021/06/29 02:57:26;;;;;;;12.38;5.47;;;14.00;99.90;;;;;;5053936;28;20021;-74
2021/06/29 02:59:52;;;;;;;8.90;5.57;;;13.90;99.90;;;;;;5054099;28;20132;-74
2021/06/29 03:02:18;;;;;;;7.50;6.05;;;14.00;99.90;;;;;;5053801;28;20024;-74
2021/06/29 03:04:44;;;;;;;10.57;5.85;;;14.00;99.90;;;;;;5053131;28;20397;-74
2021/06/29 03:07:10;;;;;;;8.32;5.97;;;14.10;99.90;;;;;;5036558;28;20033;-74
2021/06/29 03:09:36;;;;;;;14.20;5.63;;;14.20;99.90;;;;;;5052296;28;20021;-74
2021/06/29 03:12:01;;;;;;;15.38;5.28;;;14.10;99.90;;;;;;5053917;28;20022;-74
2021/06/29 03:14:27;;;;;;;11.25;6.32;;;14.00;99.90;;;;;;5053828;28;20032;-74
2021/06/29 03:16:53;;;;;;;12.38;6.05;;;14.20;99.90;;;;;;5053492;28;20103;-74
2021/06/29 03:19:19;;;;;;;11.15;7.05;;;14.20;99.90;;;;;;5053356;28;20064;-74
2021/06/29 03:21:45;;;;;;;6.50;4.95;;;14.30;99.90;;;;;;5053561;28;20036;-74
2021/06/29 03:24:11;;;;;;;9.38;5.82;;;14.10;99.90;;;;;;5053385;28;20037;-74
2021/06/29 03:26:37;;;;;;;10.98;5.82;;;14.10;99.90;;;;;;5053253;28;20481;-74
2021/06/29 03:29:04;;;;;;;8.93;5.22;;;14.10;99.90;;;;;;5053604;28;20025;-74
2021/06/29 03:31:33;;;;;;;10.88;5.35;;;14.10;99.90;;;;;;5053329;28;20033;-74
2021/06/29 03:33:59;;;;;;;11.48;5.90;;;14.20;99.90;;;;;;5053286;28;20385;-74
2021/06/29 03:36:25;;;;;;;9.48;5.40;;;14.30;99.90;;;;;;5052546;28;20036;-74
2021/06/29 03:38:51;;;;;;;12.57;6.68;;;14.40;99.90;;;;;;5053063;28;20037;-74
2021/06/29 03:41:17;;;;;;;7.40;5.32;;;14.40;99.90;;;;;;5053458;28;20036;-74
2021/06/29 03:43:43;;;;;;;10.40;5.70;;;14.30;99.90;;;;;;5053232;28;20543;-74
2021/06/29 03:46:09;;;;;;;12.90;5.95;;;14.30;99.90;;;;;;5052943;28;20033;-74
2021/06/29 03:48:35;;;;;;;11.15;5.47;;;14.40;99.90;;;;;;5051357;28;20451;-74
2021/06/29 03:51:01;;;;;;;8.45;5.47;;;14.20;99.90;;;;;;5053109;28;20052;-74
2021/06/29 03:53:26;;;;;;;8.27;6.03;;;14.30;99.90;;;;;;5051890;28;20473;-74
2021/06/29 03:55:52;;;;;;;5.20;4.63;;;14.30;99.90;;;;;;5051630;28;20070;-74
2021/06/29 03:58:18;;;;;;;14.45;6.80;;;14.30;99.90;;;;;;5052932;28;20036;-74
2021/06/29 04:00:45;;;;;;;10.98;5.07;;;14.40;99.90;;;;;;5052848;28;20078;-74
2021/06/29 04:03:11;;;;;;;7.55;4.93;;;14.30;99.90;;;;;;5047427;28;20037;-74
2021/06/29 04:05:37;;;;;;;7.15;5.88;;;14.20;99.90;;;;;;5032731;28;20104;-74
2021/06/29 04:08:03;;;;;;;13.50;5.70;;;14.20;99.90;;;;;;5032947;28;20022;-74
2021/06/29 04:10:29;;;;;;;9.98;6.13;;;14.20;99.90;;;;;;5045628;28;20033;-74
2021/06/29 04:12:55;;;;;;;7.25;5.82;;;14.20;99.90;;;;;;5052693;28;20028;-74
2021/06/29 04:15:21;;;;;;;6.95;5.55;;;14.20;99.90;;;;;;5052012;28;20029;-74
2021/06/29 04:17:46;;;;;;;6.95;5.65;;;14.20;99.90;;;;;;5052443;28;20469;-74
2021/06/29 04:20:13;;;;;;;8.60;6.03;;;14.20;99.90;;;;;;5052445;28;20041;-74
2021/06/29 04:22:38;;;;;;;17.98;6.00;;;14.20;99.90;;;;;;5052479;28;20484;-74
2021/06/29 04:25:07;;;;;;;6.93;6.13;;;14.30;99.90;;;;;;5052605;28;20075;-74
2021/06/29 04:27:33;;;;;;;8.32;5.55;;;14.30;99.90;;;;;;5052300;28;20473;-74
2021/06/29 04:29:59;;;;;;;10.18;5.80;;;14.30;99.90;;;;;;5052485;28;20047;-74
2021/06/29 04:32:25;;;;;;;10.30;5.75;;;14.30;99.90;;;;;;5052300;28;20083;-74
2021/06/29 04:34:51;;;;;;;9.88;6.45;;;14.30;99.90;;;;;;5051479;28;20029;-74
2021/06/29 04:37:17;;;;;;;8.82;5.40;;;14.30;99.90;;;;;;5052514;28;20033;-74
2021/06/29 04:39:44;;;;;;;16.30;5.45;;;14.30;99.90;;;;;;5052027;28;20051;-74
2021/06/29 04:42:10;;;;;;;7.30;5.63;;;14.30;99.90;;;;;;5052376;28;20039;-74
2021/06/29 04:44:38;;;;;;;6.85;5.45;;;14.30;99.90;;;;;;5052261;28;20028;-74
2021/06/29 04:47:05;;;;;;;7.75;5.25;;;14.20;99.90;;;;;;5051821;28;20059;-74
2021/06/29 04:49:31;;;;;;;9.52;5.78;;;14.30;99.90;;;;;;5052276;28;20021;-74
2021/06/29 04:51:57;;;;;;;6.30;4.95;;;14.30;99.90;;;;;;5050871;28;20021;-74
2021/06/29 04:54:23;;;;;;;7.93;5.00;;;14.30;99.90;;;;;;5052319;28;20017;-74
2021/06/29 04:56:49;;;;;;;10.23;6.30;;;14.30;99.90;;;;;;5052090;28;20447;-74
2021/06/29 04:59:16;;;;;;;9.15;5.82;;;14.30;99.90;;;;;;5052222;28;20103;-74
2021/06/29 05:01:42;;;;;;;5.97;5.38;;;14.30;99.90;;;;;;5051844;28;20021;-74
2021/06/29 05:04:08;;;;;;;8.43;5.15;;;14.20;99.90;;;;;;5037721;28;20029;-74
2021/06/29 05:06:34;;;;;;;8.15;5.03;;;14.00;99.90;;;;;;5032339;28;20040;-74
2021/06/29 05:09:00;;;;;;;9.50;5.38;;;13.90;99.90;;;;;;5032289;28;20511;-74
2021/06/29 05:11:25;;;;;;;9.30;5.55;;;14.10;99.90;;;;;;5032200;28;20371;-74
2021/06/29 05:13:51;;;;;;;7.70;5.00;;;14.00;99.90;;;;;;5031945;28;20028;-74
2021/06/29 05:16:17;;;;;;;7.63;5.32;;;14.00;99.90;;;;;;5032005;28;20041;-74
2021/06/29 05:18:43;;;;;;;9.20;5.10;;;14.10;99.90;;;;;;5031985;28;20049;-74
2021/06/29 05:21:09;;;;;;;9.38;4.72;;;14.10;99.90;;;;;;5032097;28;20034;-74
2021/06/29 05:23:34;;;;;;;10.23;5.85;;;14.30;99.90;;;;;;5032299;28;20556;-74
2021/06/29 05:26:00;;;;;;;8.35;5.32;;;14.30;99.90;;;;;;5038546;28;20511;-74
2021/06/29 05:28:27;;;;;;;7.28;5.38;;;14.40;99.90;;;;;;5055675;28;20021;-74
2021/06/29 05:30:55;;;;;;;9.70;5.63;;;14.50;99.90;;;;;;5055569;28;20032;-74
2021/06/29 05:33:21;;;;;;;6.95;5.28;;;14.40;99.90;;;;;;5055733;28;20092;-74
2021/06/29 05:35:47;;;;;;;8.25;5.90;;;14.60;99.90;;;;;;5043858;28;20026;-74
2021/06/29 05:38:13;;;;;;;8.25;5.35;;;14.60;99.90;;;;;;5047153;28;20405;-74
2021/06/29 05:40:39;;;;;;;7.82;5.57;;;14.60;99.90;;;;;;5048009;28;20476;-74
2021/06/29 05:43:05;;;;;;;9.98;5.07;;;14.70;99.90;;;;;;5035278;28;20029;-74
2021/06/29 05:45:31;;;;;;;9.20;6.32;;;14.70;99.90;;;;;;5035440;28;20025;-74
2021/06/29 05:47:57;;;;;;;5.63;5.05;;;14.60;99.90;;;;;;5035236;28;20058;-74
2021/06/29 05:50:23;;;;;;;5.60;4.32;;;14.60;99.90;;;;;;5035723;28;20057;-74
2021/06/29 05:52:50;;;;;;;7.97;4.88;;;14.60;99.90;;;;;;5043354;28;20021;-73
2021/06/29 05:55:15;;;;;;;9.00;5.70;;;14.70;99.90;;;;;;5045588;28;20044;-74
2021/06/29 05:57:42;;;;;;;6.38;4.55;;;14.70;99.90;;;;;;5043039;28;20510;-74
2021/06/29 06:00:16;;;;;;;12.88;6.05;;;14.70;99.90;;;;;;5047119;28;20036;-74
2021/06/29 06:02:43;;;;;;;6.65;5.15;;;14.80;99.90;;;;;;5044246;28;20025;-74
2021/06/29 06:05:10;;;;;;;11.20;5.60;;;14.80;99.90;;;;;;5043878;28;20112;-74
2021/06/29 06:07:37;;;;;;;7.45;5.25;;;15.00;99.90;;;;;;5043074;28;20017;-74
2021/06/29 06:10:04;;;;;;;5.78;4.68;;;15.00;99.90;;;;;;5051784;28;20025;-74
2021/06/29 06:12:31;;;;;;;12.55;5.13;;;15.10;99.90;;;;;;5034061;28;20032;-75
2021/06/29 06:14:57;;;;;;;9.25;5.03;;;15.20;99.90;;;;;;5035034;28;20040;-74
2021/06/29 06:17:23;;;;;;;7.47;5.78;;;15.10;99.90;;;;;;5043790;28;20033;-74
2021/06/29 06:19:48;;;;;;;10.15;5.82;;;15.30;99.90;;;;;;5045019;28;20104;-74
2021/06/29 06:22:14;;;;;;;6.45;5.32;;;15.30;99.90;;;;;;5047908;28;20044;-74
2021/06/29 06:24:40;;;;;;;7.88;6.32;;;15.40;99.90;;;;;;5048974;28;20396;-74
2021/06/29 06:27:08;;;;;;;8.27;4.90;;;15.50;99.90;;;;;;5044218;28;20037;-74
2021/06/29 06:29:34;;;;;;;8.50;4.82;;;15.60;99.90;;;;;;5040403;28;20057;-74
2021/06/29 06:32:00;;;;;;;4.85;4.20;;;15.70;99.90;;;;;;5048309;28;20083;-75
2021/06/29 06:34:26;;;;;;;8.00;4.80;;;15.70;99.90;;;;;;5037034;28;20128;-74
2021/06/29 06:36:52;;;;;;;5.72;4.75;;;15.70;99.90;;;;;;5044862;28;20570;-75
2021/06/29 06:39:18;;;;;;;12.13;4.45;;;15.50;99.90;;;;;;5052596;28;20039;-74
2021/06/29 06:41:44;;;;;;;7.78;4.45;;;15.50;99.90;;;;;;5041985;28;20059;-75
2021/06/29 06:44:09;;;;;;;8.27;4.72;;;15.40;99.90;;;;;;5034934;28;20041;-75
2021/06/29 06:46:35;;;;;;;9.27;4.97;;;15.50;99.90;;;;;;5049252;28;20389;-75
2021/06/29 06:49:01;;;;;;;5.65;4.60;;;15.50;99.90;;;;;;5053112;28;20029;-75
2021/06/29 06:51:27;;;;;;;7.47;4.05;;;15.50;99.90;;;;;;5053377;28;20025;-76
2021/06/29 06:53:52;;;;;;;6.53;4.07;;;15.60;99.90;;;;;;5053543;28;20036;-75
2021/06/29 06:56:18;;;;;;;7.20;4.03;;;15.60;99.90;;;;;;5043904;28;20505;-79
2021/06/29 06:58:45;;;;;;;6.18;3.67;;;15.70;99.90;;;;;;5044247;28;20381;-75
2021/06/29 07:01:12;;;;;;;5.40;4.32;;;15.70;99.90;;;;;;5048149;28;20104;-75
2021/06/29 07:03:39;;;;;;;5.03;3.72;;;15.70;99.90;;;;;;5049339;28;20037;-75
2021/06/29 07:06:08;;;;;;;9.05;4.35;;;15.80;99.90;;;;;;5038407;28;20029;-73
2021/06/29 07:08:34;;;;;;;7.70;4.40;;;15.90;99.90;;;;;;5049241;28;20075;-74
2021/06/29 07:11:01;;;;;;;6.82;3.83;;;15.90;99.90;;;;;;5035956;28;20041;-77
2021/06/29 07:13:27;;;;;;;10.15;4.22;;;16.10;99.90;;;;;;5033611;28;20040;-77
2021/06/29 07:15:53;;;;;;;10.38;3.97;;;16.20;99.90;;;;;;5033878;28;20044;-77
2021/06/29 07:18:20;;;;;;;7.72;4.32;;;16.30;99.90;;;;;;5033538;28;20025;-77
2021/06/29 07:20:46;;;;;;;4.85;3.85;;;16.30;99.90;;;;;;5045134;28;20485;-77
2021/06/29 07:23:13;;;;;;;5.85;3.28;;;16.40;99.90;;;;;;5033973;28;20026;-77
2021/06/29 07:25:40;;;;;;;3.80;3.45;;;16.50;99.90;;;;;;5036831;28;20079;-77
2021/06/29 07:28:07;;;;;;;5.22;3.70;;;16.70;99.90;;;;;;5053431;28;20017;-77
2021/06/29 07:30:34;;;;;;;5.18;3.40;;;16.80;99.90;;;;;;5053173;28;20033;-77
2021/06/29 07:33:00;;;;;;;5.32;3.72;;;16.90;99.90;;;;;;5053625;28;20056;-77
2021/06/29 07:35:28;;;;;;;9.43;3.75;;;17.20;99.90;;;;;;5053156;28;20060;-77
2021/06/29 07:37:54;;;;;;;5.57;3.58;;;17.30;99.90;;;;;;5053372;28;20501;-77
2021/06/29 07:40:20;;;;;;;4.85;3.13;;;17.40;99.90;;;;;;5053012;28;20427;-77
2021/06/29 07:42:46;;;;;;;5.40;4.00;;;17.50;99.90;;;;;;5053160;28;20025;-77
2021/06/29 07:45:12;;;;;;;4.93;3.25;;;17.60;99.90;;;;;;5053272;28;20029;-77
2021/06/29 07:47:38;;;;;;;4.63;2.65;;;18.10;99.90;;;;;;5053047;28;20029;-77
2021/06/29 07:50:07;;;;;;;6.32;3.35;;;18.10;99.90;;;;;;5052269;28;20109;-77
2021/06/29 07:52:33;;;;;;;10.07;3.72;;;18.20;99.90;;;;;;5052896;28;20017;-77
2021/06/29 07:54:59;;;;;;;6.20;3.72;;;18.50;99.90;;;;;;5052855;28;20025;-77
2021/06/29 07:57:25;;;;;;;8.82;3.85;;;18.60;99.90;;;;;;5053016;28;20037;-77
2021/06/29 07:59:51;;;;;;;7.05;3.53;;;18.50;99.90;;;;;;5052947;28;20050;-77
2021/06/29 08:02:17;;;;;;;5.05;2.97;;;18.70;99.90;;;;;;5053088;28;20033;-77
2021/06/29 08:04:43;;;;;;;8.50;3.38;;;18.50;99.90;;;;;;5052868;28;20029;-77
2021/06/29 08:07:09;;;;;;;6.75;3.38;;;18.40;99.90;;;;;;5052880;28;20056;-77
2021/06/29 08:09:35;;;;;;;4.78;3.03;;;18.70;99.90;;;;;;5052576;28;20032;-77
2021/06/29 08:12:02;;;;;;;8.63;3.53;;;19.10;99.90;;;;;;5052831;28;20021;-77
2021/06/29 08:14:28;;;;;;;8.75;4.03;;;19.20;99.90;;;;;;5052777;28;20493;-77
2021/06/29 08:16:54;;;;;;;4.15;3.50;;;19.10;99.90;;;;;;5052771;28;20028;-77
2021/06/29 08:19:20;;;;;;;5.10;3.65;;;19.10;99.90;;;;;;5051224;28;20044;-78
2021/06/29 08:21:45;;;;;;;6.10;3.55;;;19.00;99.90;;;;;;5052691;28;20023;-77
2021/06/29 08:24:11;;;;;;;5.25;3.17;;;19.00;99.90;;;;;;5052338;28;20066;-77
2021/06/29 08:26:37;;;;;;;4.78;2.97;;;18.80;99.90;;;;;;5052122;28;20033;-77
2021/06/29 08:29:03;;;;;;;4.75;3.38;;;18.80;99.90;;;;;;5052621;28;20063;-78
2021/06/29 08:31:29;;;;;;;5.35;3.80;;;19.20;99.90;;;;;;5052564;28;20410;-77
2021/06/29 08:33:55;;;;;;;5.30;3.22;;;19.20;99.90;;;;;;5052486;28;20025;-77
2021/06/29 08:36:21;;;;;;;5.32;3.08;;;19.40;99.90;;;;;;5052424;28;20131;-77
2021/06/29 08:38:48;;;;;;;5.43;3.60;;;19.40;99.90;;;;;;5052046;28;20033;-77
2021/06/29 08:41:15;;;;;;;6.32;3.05;;;20.20;99.90;;;;;;5052332;28;20528;-77
2021/06/29 08:43:41;;;;;;;3.08;2.78;;;20.10;99.90;;;;;;5052381;28;20396;-77
2021/06/29 08:46:09;;;;;;;4.15;3.05;;;20.60;99.90;;;;;;5052246;28;20477;-77
2021/06/29 08:48:35;;;;;;;4.55;3.30;;;20.10;99.90;;;;;;5052132;28;20028;-77
2021/06/29 08:51:05;;;;;;;3.33;2.97;;;20.40;99.90;;;;;;5052394;28;20074;-77
2021/06/29 08:53:32;;;;;;;7.38;3.90;;;21.00;99.90;;;;;;5051853;28;20028;-77
2021/06/29 08:55:58;;;;;;;3.38;2.75;;;21.40;99.90;;;;;;5052275;28;20036;-77
2021/06/29 08:58:26;;;;;;;4.80;2.97;;;20.30;99.90;;;;;;5050948;28;20025;-78
2021/06/29 09:00:53;;;;;;;3.78;3.00;;;20.30;99.90;;;;;;5053629;28;20025;-77
2021/06/29 09:03:19;;;;;;;4.45;3.00;;;20.50;99.90;;;;;;5056241;28;20033;-77
2021/06/29 09:05:46;;;;;;;3.70;2.53;;;20.60;99.90;;;;;;5056063;28;20040;-77
2021/06/29 09:08:17;;;;;;;3.45;2.53;;;21.00;99.90;;;;;;5054499;28;20075;-78
2021/06/29 09:11:03;;;;;;;3.72;2.47;;;21.70;99.90;;;;;;5055954;28;20060;-78
2021/06/29 09:13:32;;;;;;;3.80;2.35;;;22.10;99.90;;;;;;5055594;28;20049;-78
2021/06/29 09:15:58;;;;;;;4.78;2.45;;;22.00;99.90;;;;;;5056005;28;20485;-78
2021/06/29 09:18:27;;;;;;;3.97;2.67;;;22.00;98.70;;;;;;5055936;28;20029;-78
2021/06/29 09:21:05;;;;;;;6.25;2.60;;;21.90;98.70;;;;;;5055623;28;20029;-77
2021/06/29 09:23:42;;;;;;;4.18;2.40;;;22.30;99.90;;;;;;5055756;28;20025;-78
2021/06/29 09:26:13;;;;;;;5.10;2.67;;;22.40;96.50;;;;;;5054319;28;20044;-78
2021/06/29 09:28:41;;;;;;;3.95;2.40;;;22.20;97.30;;;;;;5055849;28;20025;-78
2021/06/29 09:31:12;;;;;;;4.00;2.45;;;21.70;95.50;;;;;;5055846;28;20013;-78
2021/06/29 09:33:44;;;;;;;2.65;2.15;;;21.20;94.60;;;;;;5055549;28;20076;-78
2021/06/29 09:36:18;;;;;;;3.72;2.33;;;20.50;94.90;;;;;;5055282;28;20028;-78
2021/06/29 09:38:47;;;;;;;3.95;2.10;;;21.30;96.20;;;;;;5055569;28;20151;-78
2021/06/29 09:41:24;;;;;;;2.35;2.00;;;21.60;95.70;;;;;;5055633;28;20025;-78
2021/06/29 09:43:55;;;;;;;2.42;2.22;;;21.60;94.00;;;;;;5055369;28;20029;-78
2021/06/29 09:46:23;;;;;;;3.53;2.45;;;22.60;93.90;;;;;;5055542;28;20029;-78
2021/06/29 09:48:54;;;;;;;2.38;1.73;;;23.10;93.40;;;;;;5055431;28;20021;-77
2021/06/29 09:51:30;;;;;;;2.42;1.70;;;22.40;91.30;;;;;;5055178;28;20025;-78
2021/06/29 09:53:59;;;;;;;2.67;2.28;;;20.90;91.80;;;;;;5055194;28;20044;-77
2021/06/29 09:56:30;;;;;;;3.27;2.40;;;21.10;95.30;;;;;;5055502;28;20021;-78
2021/06/29 09:58:57;;;;;;;3.92;2.13;;;22.30;92.50;;;;;;5055247;28;20029;-78
2021/06/29 10:01:28;;;;;;;2.67;2.20;;;22.50;93.50;;;;;;5055283;28;20480;-77
2021/06/29 10:03:54;;;;;;;3.70;2.50;;;22.10;93.40;;;;;;5055211;28;20052;-78
2021/06/29 10:06:25;;;;;;;3.45;2.13;;;21.20;95.40;;;;;;5054801;28;20396;-78
2021/06/29 10:08:54;;;;;;;4.32;1.92;;;20.00;94.20;;;;;;5054988;28;20365;-78
2021/06/29 10:11:32;;;;;;;2.83;1.58;;;19.40;94.20;;;;;;5054761;28;20025;-77
2021/06/29 10:14:12;;;;;;;2.55;2.10;;;19.40;95.00;;;;;;5052967;28;20013;-78
2021/06/29 10:16:47;;;;;;;2.38;1.92;;;19.60;95.40;;;;;;5054868;28;20041;-77
2021/06/29 10:21:49;;;;;;;3.55;2.25;;;19.80;97.30;;;;;;5054908;28;20079;-77
2021/06/29 10:24:20;;;;;;;3.15;1.90;;;20.20;96.10;;;;;;5054699;28;20037;-77
2021/06/29 10:26:47;;;;;;;2.58;2.33;;;20.20;93.80;;;;;;5054465;28;20037;-77
2021/06/29 10:29:14;;;;;;;5.80;2.05;;;20.40;95.90;;;;;;5054729;28;20025;-78
2021/06/29 10:31:44;;;;;;;5.70;2.20;;;20.50;95.90;;;;;;5054585;28;20033;-77
2021/06/29 10:34:11;;;;;;;2.00;1.90;;;20.80;96.70;;;;;;5054233;28;20378;-77
2021/06/29 10:36:39;;;;;;;4.03;2.30;;;20.70;96.30;;;;;;5054378;28;20507;-77
2021/06/29 10:39:12;;;;;;;1.85;1.50;;;20.40;97.30;;;;;;5054491;28;20029;-77
2021/06/29 10:41:48;;;;;;;2.65;1.90;;;20.40;97.80;;;;;;5054462;28;20565;-77
2021/06/29 10:44:19;;;;;;;4.65;2.22;;;20.20;97.30;;;;;;5054412;28;20032;-77
2021/06/29 10:46:51;;;;;;;2.17;1.63;;;20.50;94.80;;;;;;5054329;28;20037;-77
2021/06/29 10:49:28;;;;;;;2.13;1.75;;;20.90;96.10;;;;;;5053808;28;20366;-77
2021/06/29 10:51:54;;;;;;;1.85;1.40;;;21.40;94.50;;;;;;5054136;28;20029;-78
2021/06/29 10:55:02;;;;;;;4.75;1.98;;;21.80;94.50;;;;;;5054377;28;20039;-78
2021/06/29 10:58:02;;;;;;;5.68;2.55;;;21.50;95.30;;;;;;5053171;28;20455;-77
2021/06/29 11:00:30;;;;;;;;;;;20.70;95.20;;;;;;5032297;28;20120;-77
2021/06/29 11:02:58;;;;;;;2.22;1.90;;;20.50;96.10;;;;;;5031490;28;19905;-78
2021/06/29 11:05:27;;;;;;;2.55;2.13;;;20.40;97.10;;;;;;5032024;28;20448;-77
2021/06/29 11:08:06;;;;;;;3.88;1.95;;;20.00;97.70;;;;;;5031714;28;20083;-77
2021/06/29 11:10:35;;;;;;;2.72;1.85;;;20.00;99.10;;;;;;5031742;28;20041;-77
2021/06/29 11:13:02;;;;;;;4.22;1.95;;;19.90;99.80;;;;;;5031863;28;20554;-77
2021/06/29 11:15:56;;;;;;;4.07;1.95;;;19.80;98.60;;;;;;5031772;28;20072;-77
2021/06/29 11:18:45;;;;;;;3.58;1.95;;;19.80;98.20;;;;;;5031018;28;20033;-77
2021/06/29 11:21:19;;;;;;;3.10;1.67;;;19.60;99.90;;;;;;5022796;28;20054;-77
2021/06/29 11:23:46;;;;;;;2.08;1.45;;;19.90;97.70;;;;;;5031400;28;20034;-77
2021/06/29 11:26:11;;;;;;;4.60;1.90;;;20.10;99.20;;;;;;5031224;28;20129;-77
2021/06/29 11:28:46;;;;;;;2.38;1.92;;;20.10;98.20;;;;;;5031453;28;20096;-77
2021/06/29 11:31:21;;;;;;;3.50;1.25;;;20.20;97.40;;;;;;5031069;28;20049;-77
2021/06/29 11:33:53;;;;;;;3.50;2.30;;;20.30;98.00;;;;;;5031371;28;20041;-77
2021/06/29 11:36:25;;;;;;;1.77;1.55;;;20.10;97.30;;;;;;5020453;28;20498;-77
2021/06/29 11:38:53;;;;;;;2.78;1.60;;;19.80;96.80;;;;;;5013775;28;20030;-77
2021/06/29 11:41:26;;;;;;;2.03;1.60;;;19.90;98.10;;;;;;5013522;28;20045;-78
2021/06/29 11:43:53;;;;;;;2.25;1.80;;;19.70;97.20;;;;;;5012334;28;20080;-77
2021/06/29 11:46:52;;;;;;;3.08;1.38;;;19.60;99.40;;;;;;5013134;28;20038;-77
2021/06/29 11:49:47;;;;;;;4.45;2.03;;;19.40;99.60;;;;;;5012242;28;20113;-77
2021/06/29 11:52:17;;;;;;;1.50;1.30;;;19.30;99.60;;;;;;5013511;28;20030;-77
2021/06/29 11:54:54;;;;;;;2.78;1.83;;;19.30;99.90;;;;;;5013333;28;20053;-77
2021/06/29 11:57:35;;;;;;;2.03;1.55;;;19.30;99.90;;;;;;5013489;28;20541;-77
2021/06/29 12:00:06;;;;;;;1.92;1.83;;;19.20;99.90;;;;;;5013035;28;20033;-77
2021/06/29 12:02:33;;;;;;;5.25;1.98;;;19.10;99.90;;;;;;5012093;28;20018;-77
2021/06/29 12:05:07;;;;;;;3.63;1.60;;;19.00;99.90;;;;;;5013157;28;20030;-77
2021/06/29 12:07:40;;;;;;;2.80;1.58;;;18.80;99.90;;;;;;5013168;28;20172;-77
2021/06/29 12:10:12;;;;;;;3.05;1.65;;;18.90;99.90;;;;;;5013008;28;20025;-78
2021/06/29 12:12:41;;;;;;;2.88;1.80;;;18.70;99.90;;;;;;5013175;28;20018;-77
2021/06/29 12:15:12;;;;;;;1.50;1.40;;;18.60;99.90;;;;;;5012749;28;20057;-77
2021/06/29 12:18:02;;;;;;;3.60;1.80;;;18.40;99.90;;;;;;5013184;28;20061;-77
2021/06/29 12:20:32;;;;;;;2.45;1.40;;;18.40;99.90;;;;;;5045624;28;20134;-77
2021/06/29 12:23:00;;;;;;;1.85;1.75;;;18.50;99.90;;;;;;5032921;28;20037;-77
2021/06/29 12:25:29;;;;;;;1.52;1.23;;;18.40;99.90;;;;;;5034438;28;20079;-77
2021/06/29 12:28:04;;;;;;;1.50;1.25;;;18.40;99.90;;;;;;5052301;28;20028;-77
2021/06/29 12:30:34;;;;;;;2.30;1.85;;;18.30;99.90;;;;;;5052298;28;20511;-77
2021/06/29 12:33:11;;;;;;;3.58;1.30;;;18.40;99.90;;;;;;5052570;28;20033;-77
2021/06/29 12:35:37;;;;;;;2.65;1.40;;;18.40;99.90;;;;;;5050697;28;20029;-77
2021/06/29 12:38:16;;;;;;;1.83;1.65;;;18.40;99.90;;;;;;5050953;28;20025;-77
2021/06/29 12:40:45;;;;;;;1.50;1.40;;;18.30;99.90;;;;;;5052476;28;20496;-77
2021/06/29 12:43:25;;;;;;;2.05;1.48;;;18.40;99.90;;;;;;5052240;28;20029;-77
2021/06/29 12:45:52;;;;;;;3.33;1.40;;;18.30;99.90;;;;;;5052471;28;20032;-77
2021/06/29 12:48:18;;;;;;;2.80;1.38;;;18.30;99.90;;;;;;5052445;28;20025;-77
2021/06/29 12:51:00;;;;;;;3.13;1.60;;;18.30;99.90;;;;;;5052267;28;20507;-77
2021/06/29 12:53:26;;;;;;;2.50;1.88;;;18.40;99.90;;;;;;5052272;28;20408;-77
2021/06/29 12:56:03;;;;;;;2.63;1.50;;;18.50;99.90;;;;;;5052318;28;20021;-77